sensor_id;sensor_type;location;lat;lon;timestamp;temperature;humidity
42615;DHT22;28754;47.700;7.924;2024-03-07T00:01:41;4.30;99.90
42615;DHT22;28754;47.700;7.924;2024-03-07T00:04:28;4.30;99.90
42615;DHT22;28754;47.700;7.924;2024-03-07T00:07:14;4.30;99.90
42615;DHT22;28754;47.700;7.924;2024-03-07T00:10:02;4.20;99.90
42615;DHT22;28754;47.700;7.924;2024-03-07T00:12:49;4.20;99.90
42615;DHT22;28754;47.700;7.924;2024-03-07T00:15:36;4.20;99.90
42615;DHT22;28754;47.700;7.924;2024-03-07T00:18:23;4.30;99.90
42615;DHT22;28754;47.700;7.924;2024-03-07T00:21:09;4.30;99.90
42615;DHT22;28754;47.700;7.924;2024-03-07T00:23:56;4.20;99.90
42615;DHT22;28754;47.700;7.924;2024-03-07T00:26:43;4.30;99.90
42615;DHT22;28754;47.700;7.924;2024-03-07T00:29:29;4.20;99.90
42615;DHT22;28754;47.700;7.924;2024-03-07T00:32:16;4.20;99.90
42615;DHT22;28754;47.700;7.924;2024-03-07T00:35:06;4.10;99.90
42615;DHT22;28754;47.700;7.924;2024-03-07T00:37:55;4.30;99.90
42615;DHT22;28754;47.700;7.924;2024-03-07T00:40:42;4.20;99.90
42615;DHT22;28754;47.700;7.924;2024-03-07T00:43:29;4.20;99.90
42615;DHT22;28754;47.700;7.924;2024-03-07T00:46:16;4.20;99.90
42615;DHT22;28754;47.700;7.924;2024-03-07T00:49:03;4.30;99.90
42615;DHT22;28754;47.700;7.924;2024-03-07T00:51:51;4.20;99.90
42615;DHT22;28754;47.700;7.924;2024-03-07T00:54:38;4.10;99.90
42615;DHT22;28754;47.700;7.924;2024-03-07T00:57:24;4.10;99.90
42615;DHT22;28754;47.700;7.924;2024-03-07T01:00:11;4.10;99.90
42615;DHT22;28754;47.700;7.924;2024-03-07T01:03:00;4.10;99.90
42615;DHT22;28754;47.700;7.924;2024-03-07T01:05:47;4.20;99.90
42615;DHT22;28754;47.700;7.924;2024-03-07T01:08:34;4.10;99.90
42615;DHT22;28754;47.700;7.924;2024-03-07T01:11:22;4.10;99.90
42615;DHT22;28754;47.700;7.924;2024-03-07T01:14:09;4.10;99.90
42615;DHT22;28754;47.700;7.924;2024-03-07T01:16:55;4.20;99.90
42615;DHT22;28754;47.700;7.924;2024-03-07T01:19:42;4.30;99.90
42615;DHT22;28754;47.700;7.924;2024-03-07T01:22:29;4.30;99.90
42615;DHT22;28754;47.700;7.924;2024-03-07T01:25:16;4.20;99.90
42615;DHT22;28754;47.700;7.924;2024-03-07T01:28:03;4.20;99.90
42615;DHT22;28754;47.700;7.924;2024-03-07T01:30:51;4.30;99.90
42615;DHT22;28754;47.700;7.924;2024-03-07T01:33:38;4.30;99.90
42615;DHT22;28754;47.700;7.924;2024-03-07T01:36:25;4.30;99.90
42615;DHT22;28754;47.700;7.924;2024-03-07T01:39:12;4.20;99.90
42615;DHT22;28754;47.700;7.924;2024-03-07T01:41:58;4.20;99.90
42615;DHT22;28754;47.700;7.924;2024-03-07T01:44:45;4.20;99.90
42615;DHT22;28754;47.700;7.924;2024-03-07T01:47:32;4.10;99.90
42615;DHT22;28754;47.700;7.924;2024-03-07T01:50:19;4.10;99.90
42615;DHT22;28754;47.700;7.924;2024-03-07T01:53:09;4.10;99.90
42615;DHT22;28754;47.700;7.924;2024-03-07T01:55:59;4.10;99.90
42615;DHT22;28754;47.700;7.924;2024-03-07T01:58:47;4.10;99.90
42615;DHT22;28754;47.700;7.924;2024-03-07T02:01:34;4.20;99.90
42615;DHT22;28754;47.700;7.924;2024-03-07T02:04:22;4.10;99.90
42615;DHT22;28754;47.700;7.924;2024-03-07T02:07:10;4.10;99.90
42615;DHT22;28754;47.700;7.924;2024-03-07T02:10:00;4.00;99.90
42615;DHT22;28754;47.700;7.924;2024-03-07T02:12:48;4.00;99.90
42615;DHT22;28754;47.700;7.924;2024-03-07T02:15:35;3.90;99.90
42615;DHT22;28754;47.700;7.924;2024-03-07T02:18:22;3.90;99.90
42615;DHT22;28754;47.700;7.924;2024-03-07T02:21:08;3.90;99.90
42615;DHT22;28754;47.700;7.924;2024-03-07T02:23:55;3.90;99.90
42615;DHT22;28754;47.700;7.924;2024-03-07T02:26:42;3.80;99.90
42615;DHT22;28754;47.700;7.924;2024-03-07T02:29:29;3.80;99.90
42615;DHT22;28754;47.700;7.924;2024-03-07T02:32:17;3.80;99.90
42615;DHT22;28754;47.700;7.924;2024-03-07T02:35:05;3.90;99.90
42615;DHT22;28754;47.700;7.924;2024-03-07T02:37:52;3.90;99.90
42615;DHT22;28754;47.700;7.924;2024-03-07T02:40:39;3.90;99.90
42615;DHT22;28754;47.700;7.924;2024-03-07T02:43:26;3.90;99.90
42615;DHT22;28754;47.700;7.924;2024-03-07T02:46:13;4.00;99.90
42615;DHT22;28754;47.700;7.924;2024-03-07T02:49:00;3.90;99.90
42615;DHT22;28754;47.700;7.924;2024-03-07T02:51:47;3.90;99.90
42615;DHT22;28754;47.700;7.924;2024-03-07T02:54:34;4.00;99.90
42615;DHT22;28754;47.700;7.924;2024-03-07T02:57:21;3.90;99.90
42615;DHT22;28754;47.700;7.924;2024-03-07T03:00:08;3.90;99.90
42615;DHT22;28754;47.700;7.924;2024-03-07T03:03:12;4.00;99.90
42615;DHT22;28754;47.700;7.924;2024-03-07T03:05:59;3.90;99.90
42615;DHT22;28754;47.700;7.924;2024-03-07T03:08:46;4.00;99.90
42615;DHT22;28754;47.700;7.924;2024-03-07T03:11:34;3.90;99.90
42615;DHT22;28754;47.700;7.924;2024-03-07T03:14:21;3.90;99.90
42615;DHT22;28754;47.700;7.924;2024-03-07T03:17:07;4.00;99.90
42615;DHT22;28754;47.700;7.924;2024-03-07T03:19:55;3.90;99.90
42615;DHT22;28754;47.700;7.924;2024-03-07T03:22:41;3.90;99.90
42615;DHT22;28754;47.700;7.924;2024-03-07T03:25:30;3.80;99.90
42615;DHT22;28754;47.700;7.924;2024-03-07T03:28:18;3.90;99.90
42615;DHT22;28754;47.700;7.924;2024-03-07T03:31:07;3.80;99.90
42615;DHT22;28754;47.700;7.924;2024-03-07T03:33:54;3.90;99.90
42615;DHT22;28754;47.700;7.924;2024-03-07T03:36:41;3.80;99.90
42615;DHT22;28754;47.700;7.924;2024-03-07T03:39:28;3.80;99.90
42615;DHT22;28754;47.700;7.924;2024-03-07T03:42:15;3.90;99.90
42615;DHT22;28754;47.700;7.924;2024-03-07T03:45:02;3.90;99.90
42615;DHT22;28754;47.700;7.924;2024-03-07T03:47:52;3.90;99.90
42615;DHT22;28754;47.700;7.924;2024-03-07T03:50:40;3.90;99.90
42615;DHT22;28754;47.700;7.924;2024-03-07T03:53:27;3.80;99.90
42615;DHT22;28754;47.700;7.924;2024-03-07T03:56:13;3.80;99.90
42615;DHT22;28754;47.700;7.924;2024-03-07T03:59:02;3.80;99.90
42615;DHT22;28754;47.700;7.924;2024-03-07T04:01:48;3.80;99.90
42615;DHT22;28754;47.700;7.924;2024-03-07T04:04:39;3.80;99.90
42615;DHT22;28754;47.700;7.924;2024-03-07T04:07:26;3.80;99.90
42615;DHT22;28754;47.700;7.924;2024-03-07T04:10:14;3.90;99.90
42615;DHT22;28754;47.700;7.924;2024-03-07T04:13:02;3.90;99.90
42615;DHT22;28754;47.700;7.924;2024-03-07T04:15:49;3.90;99.90
42615;DHT22;28754;47.700;7.924;2024-03-07T04:18:36;3.90;99.90
42615;DHT22;28754;47.700;7.924;2024-03-07T04:21:23;3.90;99.90
42615;DHT22;28754;47.700;7.924;2024-03-07T04:24:12;4.00;99.90
42615;DHT22;28754;47.700;7.924;2024-03-07T04:26:59;4.00;99.90
42615;DHT22;28754;47.700;7.924;2024-03-07T04:29:47;4.00;99.90
42615;DHT22;28754;47.700;7.924;2024-03-07T04:32:34;4.00;99.90
42615;DHT22;28754;47.700;7.924;2024-03-07T04:35:20;3.90;99.90
42615;DHT22;28754;47.700;7.924;2024-03-07T04:38:08;3.90;99.90
42615;DHT22;28754;47.700;7.924;2024-03-07T04:40:57;4.00;99.90
42615;DHT22;28754;47.700;7.924;2024-03-07T04:43:44;4.00;99.90
42615;DHT22;28754;47.700;7.924;2024-03-07T04:46:31;4.00;99.90
42615;DHT22;28754;47.700;7.924;2024-03-07T04:49:17;4.00;99.90
42615;DHT22;28754;47.700;7.924;2024-03-07T04:52:04;4.00;99.90
42615;DHT22;28754;47.700;7.924;2024-03-07T04:54:51;4.00;99.90
42615;DHT22;28754;47.700;7.924;2024-03-07T04:57:38;4.10;99.90
42615;DHT22;28754;47.700;7.924;2024-03-07T05:00:26;4.10;99.90
42615;DHT22;28754;47.700;7.924;2024-03-07T05:03:15;4.00;99.90
42615;DHT22;28754;47.700;7.924;2024-03-07T05:06:02;4.00;99.90
42615;DHT22;28754;47.700;7.924;2024-03-07T05:08:48;3.90;99.90
42615;DHT22;28754;47.700;7.924;2024-03-07T05:11:36;3.90;99.90
42615;DHT22;28754;47.700;7.924;2024-03-07T05:14:23;3.80;99.90
42615;DHT22;28754;47.700;7.924;2024-03-07T05:17:11;3.80;99.90
42615;DHT22;28754;47.700;7.924;2024-03-07T05:19:58;3.80;99.90
42615;DHT22;28754;47.700;7.924;2024-03-07T05:22:46;3.80;99.90
42615;DHT22;28754;47.700;7.924;2024-03-07T05:25:38;3.80;99.90
42615;DHT22;28754;47.700;7.924;2024-03-07T05:28:26;3.80;99.90
42615;DHT22;28754;47.700;7.924;2024-03-07T05:31:13;3.80;99.90
42615;DHT22;28754;47.700;7.924;2024-03-07T05:34:01;3.80;99.90
42615;DHT22;28754;47.700;7.924;2024-03-07T05:36:50;3.80;99.90
42615;DHT22;28754;47.700;7.924;2024-03-07T05:39:37;3.80;99.90
42615;DHT22;28754;47.700;7.924;2024-03-07T05:42:23;3.90;99.90
42615;DHT22;28754;47.700;7.924;2024-03-07T05:45:11;3.80;99.90
42615;DHT22;28754;47.700;7.924;2024-03-07T05:48:14;3.80;99.90
42615;DHT22;28754;47.700;7.924;2024-03-07T05:51:03;3.90;99.90
42615;DHT22;28754;47.700;7.924;2024-03-07T05:53:50;3.90;99.90
42615;DHT22;28754;47.700;7.924;2024-03-07T05:56:37;3.90;99.90
42615;DHT22;28754;47.700;7.924;2024-03-07T05:59:24;3.90;99.90
42615;DHT22;28754;47.700;7.924;2024-03-07T06:02:11;3.90;99.90
42615;DHT22;28754;47.700;7.924;2024-03-07T06:05:01;3.90;99.90
42615;DHT22;28754;47.700;7.924;2024-03-07T06:07:49;3.90;99.90
42615;DHT22;28754;47.700;7.924;2024-03-07T06:10:36;3.90;99.90
42615;DHT22;28754;47.700;7.924;2024-03-07T06:13:23;3.90;99.90
42615;DHT22;28754;47.700;7.924;2024-03-07T06:16:09;3.90;99.90
42615;DHT22;28754;47.700;7.924;2024-03-07T06:18:56;3.90;99.90
42615;DHT22;28754;47.700;7.924;2024-03-07T06:21:43;4.00;99.90
42615;DHT22;28754;47.700;7.924;2024-03-07T06:24:29;4.00;99.90
42615;DHT22;28754;47.700;7.924;2024-03-07T06:27:18;4.00;99.90
42615;DHT22;28754;47.700;7.924;2024-03-07T06:30:13;4.00;99.90
42615;DHT22;28754;47.700;7.924;2024-03-07T06:33:03;3.90;99.90
42615;DHT22;28754;47.700;7.924;2024-03-07T06:35:50;3.80;99.90
42615;DHT22;28754;47.700;7.924;2024-03-07T06:38:37;3.80;99.90
42615;DHT22;28754;47.700;7.924;2024-03-07T06:41:25;3.70;99.90
42615;DHT22;28754;47.700;7.924;2024-03-07T06:44:12;3.60;99.90
42615;DHT22;28754;47.700;7.924;2024-03-07T06:46:58;3.70;99.90
42615;DHT22;28754;47.700;7.924;2024-03-07T06:49:45;3.60;99.90
42615;DHT22;28754;47.700;7.924;2024-03-07T06:52:32;3.60;99.90
42615;DHT22;28754;47.700;7.924;2024-03-07T06:55:19;3.60;99.90
42615;DHT22;28754;47.700;7.924;2024-03-07T06:58:05;3.60;99.90
42615;DHT22;28754;47.700;7.924;2024-03-07T07:00:52;3.70;99.90
42615;DHT22;28754;47.700;7.924;2024-03-07T07:03:41;3.60;99.90
42615;DHT22;28754;47.700;7.924;2024-03-07T07:06:29;3.60;99.90
42615;DHT22;28754;47.700;7.924;2024-03-07T07:09:16;3.70;99.90
42615;DHT22;28754;47.700;7.924;2024-03-07T07:12:05;3.80;99.90
42615;DHT22;28754;47.700;7.924;2024-03-07T07:14:52;3.90;99.90
42615;DHT22;28754;47.700;7.924;2024-03-07T07:17:39;4.00;99.90
42615;DHT22;28754;47.700;7.924;2024-03-07T07:20:26;3.90;99.90
42615;DHT22;28754;47.700;7.924;2024-03-07T07:23:13;3.90;99.90
42615;DHT22;28754;47.700;7.924;2024-03-07T07:26:00;3.90;99.90
42615;DHT22;28754;47.700;7.924;2024-03-07T07:28:46;3.90;99.90
42615;DHT22;28754;47.700;7.924;2024-03-07T07:31:33;3.80;99.90
42615;DHT22;28754;47.700;7.924;2024-03-07T07:34:20;3.80;99.90
42615;DHT22;28754;47.700;7.924;2024-03-07T07:37:06;3.90;99.90
42615;DHT22;28754;47.700;7.924;2024-03-07T07:39:55;3.90;99.90
42615;DHT22;28754;47.700;7.924;2024-03-07T07:42:41;3.90;99.90
42615;DHT22;28754;47.700;7.924;2024-03-07T07:45:28;3.90;99.90
42615;DHT22;28754;47.700;7.924;2024-03-07T07:48:15;3.90;99.90
42615;DHT22;28754;47.700;7.924;2024-03-07T07:51:03;3.90;99.90
42615;DHT22;28754;47.700;7.924;2024-03-07T07:53:51;4.00;99.90
42615;DHT22;28754;47.700;7.924;2024-03-07T07:56:38;4.10;99.90
42615;DHT22;28754;47.700;7.924;2024-03-07T07:59:25;4.20;99.90
42615;DHT22;28754;47.700;7.924;2024-03-07T08:02:11;4.40;99.90
42615;DHT22;28754;47.700;7.924;2024-03-07T08:04:58;4.60;99.90
42615;DHT22;28754;47.700;7.924;2024-03-07T08:07:46;5.00;99.90
42615;DHT22;28754;47.700;7.924;2024-03-07T08:10:35;5.20;99.90
42615;DHT22;28754;47.700;7.924;2024-03-07T08:13:23;5.30;99.90
42615;DHT22;28754;47.700;7.924;2024-03-07T08:16:11;5.10;99.90
42615;DHT22;28754;47.700;7.924;2024-03-07T08:18:58;4.80;99.90
42615;DHT22;28754;47.700;7.924;2024-03-07T08:21:44;5.00;99.90
42615;DHT22;28754;47.700;7.924;2024-03-07T08:24:31;5.70;99.90
42615;DHT22;28754;47.700;7.924;2024-03-07T08:27:18;5.90;99.90
42615;DHT22;28754;47.700;7.924;2024-03-07T08:30:06;6.90;99.90
42615;DHT22;28754;47.700;7.924;2024-03-07T08:33:02;7.20;99.90
42615;DHT22;28754;47.700;7.924;2024-03-07T08:35:51;6.90;99.90
42615;DHT22;28754;47.700;7.924;2024-03-07T08:38:39;8.70;99.90
42615;DHT22;28754;47.700;7.924;2024-03-07T08:41:26;7.30;99.90
42615;DHT22;28754;47.700;7.924;2024-03-07T08:44:13;6.60;99.90
42615;DHT22;28754;47.700;7.924;2024-03-07T08:46:59;6.30;99.90
42615;DHT22;28754;47.700;7.924;2024-03-07T08:49:46;6.50;99.90
42615;DHT22;28754;47.700;7.924;2024-03-07T08:52:33;6.20;99.90
42615;DHT22;28754;47.700;7.924;2024-03-07T08:55:22;5.60;99.90
42615;DHT22;28754;47.700;7.924;2024-03-07T08:58:11;5.40;99.90
42615;DHT22;28754;47.700;7.924;2024-03-07T09:00:57;5.00;99.90
42615;DHT22;28754;47.700;7.924;2024-03-07T09:03:45;5.10;99.90
42615;DHT22;28754;47.700;7.924;2024-03-07T09:06:31;5.10;99.90
42615;DHT22;28754;47.700;7.924;2024-03-07T09:09:18;5.30;99.90
42615;DHT22;28754;47.700;7.924;2024-03-07T09:12:05;5.80;99.90
42615;DHT22;28754;47.700;7.924;2024-03-07T09:14:52;6.00;99.90
42615;DHT22;28754;47.700;7.924;2024-03-07T09:17:39;5.70;99.90
42615;DHT22;28754;47.700;7.924;2024-03-07T09:20:26;6.10;99.90
42615;DHT22;28754;47.700;7.924;2024-03-07T09:23:13;5.90;99.90
42615;DHT22;28754;47.700;7.924;2024-03-07T09:25:59;6.00;99.90
42615;DHT22;28754;47.700;7.924;2024-03-07T09:28:46;7.30;99.90
42615;DHT22;28754;47.700;7.924;2024-03-07T09:31:33;6.90;99.90
42615;DHT22;28754;47.700;7.924;2024-03-07T09:34:20;7.10;99.90
42615;DHT22;28754;47.700;7.924;2024-03-07T09:37:07;7.10;99.90
42615;DHT22;28754;47.700;7.924;2024-03-07T09:39:54;8.90;99.90
42615;DHT22;28754;47.700;7.924;2024-03-07T09:42:46;9.70;99.90
42615;DHT22;28754;47.700;7.924;2024-03-07T09:45:40;8.70;99.90
42615;DHT22;28754;47.700;7.924;2024-03-07T09:48:26;11.00;99.90
42615;DHT22;28754;47.700;7.924;2024-03-07T09:51:15;10.50;99.90
42615;DHT22;28754;47.700;7.924;2024-03-07T09:54:04;11.50;99.90
42615;DHT22;28754;47.700;7.924;2024-03-07T09:56:53;15.30;99.90
42615;DHT22;28754;47.700;7.924;2024-03-07T09:59:42;16.50;99.90
42615;DHT22;28754;47.700;7.924;2024-03-07T10:02:33;16.60;99.90
42615;DHT22;28754;47.700;7.924;2024-03-07T10:05:23;16.70;99.90
42615;DHT22;28754;47.700;7.924;2024-03-07T10:08:13;17.20;99.90
42615;DHT22;28754;47.700;7.924;2024-03-07T10:11:00;17.70;99.90
42615;DHT22;28754;47.700;7.924;2024-03-07T10:13:46;14.50;99.90
42615;DHT22;28754;47.700;7.924;2024-03-07T10:16:35;15.10;99.90
42615;DHT22;28754;47.700;7.924;2024-03-07T10:19:22;12.60;99.90
42615;DHT22;28754;47.700;7.924;2024-03-07T10:22:09;11.80;99.90
42615;DHT22;28754;47.700;7.924;2024-03-07T10:24:56;12.90;99.90
42615;DHT22;28754;47.700;7.924;2024-03-07T10:27:43;16.50;99.90
42615;DHT22;28754;47.700;7.924;2024-03-07T10:30:30;17.50;99.90
42615;DHT22;28754;47.700;7.924;2024-03-07T10:33:17;14.10;99.90
42615;DHT22;28754;47.700;7.924;2024-03-07T10:36:04;15.30;99.90
42615;DHT22;28754;47.700;7.924;2024-03-07T10:38:51;14.10;99.90
42615;DHT22;28754;47.700;7.924;2024-03-07T10:41:46;13.50;99.90
42615;DHT22;28754;47.700;7.924;2024-03-07T10:44:38;14.90;99.90
42615;DHT22;28754;47.700;7.924;2024-03-07T10:47:33;16.40;99.90
42615;DHT22;28754;47.700;7.924;2024-03-07T10:53:37;18.20;99.90
42615;DHT22;28754;47.700;7.924;2024-03-07T11:00:02;19.40;99.90
42615;DHT22;28754;47.700;7.924;2024-03-07T11:03:14;18.60;99.90
42615;DHT22;28754;47.700;7.924;2024-03-07T11:06:02;19.40;99.90
42615;DHT22;28754;47.700;7.924;2024-03-07T11:08:53;18.80;99.90
42615;DHT22;28754;47.700;7.924;2024-03-07T11:11:41;17.00;99.90
42615;DHT22;28754;47.700;7.924;2024-03-07T11:14:30;16.70;99.90
42615;DHT22;28754;47.700;7.924;2024-03-07T11:17:20;14.60;99.90
42615;DHT22;28754;47.700;7.924;2024-03-07T11:20:24;14.40;99.90
42615;DHT22;28754;47.700;7.924;2024-03-07T11:23:26;16.40;99.90
42615;DHT22;28754;47.700;7.924;2024-03-07T11:26:24;14.60;99.90
42615;DHT22;28754;47.700;7.924;2024-03-07T11:32:39;12.30;99.90
42615;DHT22;28754;47.700;7.924;2024-03-07T11:35:33;11.00;99.90
42615;DHT22;28754;47.700;7.924;2024-03-07T11:38:31;11.90;99.90
42615;DHT22;28754;47.700;7.924;2024-03-07T11:41:20;12.40;99.90
42615;DHT22;28754;47.700;7.924;2024-03-07T11:44:07;15.10;99.90
42615;DHT22;28754;47.700;7.924;2024-03-07T11:46:54;12.90;99.90
42615;DHT22;28754;47.700;7.924;2024-03-07T11:49:41;13.00;99.90
42615;DHT22;28754;47.700;7.924;2024-03-07T11:52:28;11.00;99.90
42615;DHT22;28754;47.700;7.924;2024-03-07T11:55:15;10.00;99.90
42615;DHT22;28754;47.700;7.924;2024-03-07T11:58:02;10.50;99.90
42615;DHT22;28754;47.700;7.924;2024-03-07T12:00:51;10.10;99.90
42615;DHT22;28754;47.700;7.924;2024-03-07T12:03:38;11.90;99.90
42615;DHT22;28754;47.700;7.924;2024-03-07T12:06:26;11.40;99.90
42615;DHT22;28754;47.700;7.924;2024-03-07T12:09:13;10.60;99.90
42615;DHT22;28754;47.700;7.924;2024-03-07T12:12:09;9.80;99.90
42615;DHT22;28754;47.700;7.924;2024-03-07T12:14:56;9.60;99.90
42615;DHT22;28754;47.700;7.924;2024-03-07T12:17:45;9.50;99.90
42615;DHT22;28754;47.700;7.924;2024-03-07T12:20:39;8.90;99.90
42615;DHT22;28754;47.700;7.924;2024-03-07T12:23:27;8.60;99.90
42615;DHT22;28754;47.700;7.924;2024-03-07T12:26:20;8.40;99.90
42615;DHT22;28754;47.700;7.924;2024-03-07T12:29:12;8.60;99.90
42615;DHT22;28754;47.700;7.924;2024-03-07T12:31:58;8.40;99.90
42615;DHT22;28754;47.700;7.924;2024-03-07T12:34:46;8.60;99.90
42615;DHT22;28754;47.700;7.924;2024-03-07T12:37:35;9.60;99.90
42615;DHT22;28754;47.700;7.924;2024-03-07T12:40:22;11.10;99.90
42615;DHT22;28754;47.700;7.924;2024-03-07T12:46:05;12.50;99.90
42615;DHT22;28754;47.700;7.924;2024-03-07T12:48:52;10.00;99.90
42615;DHT22;28754;47.700;7.924;2024-03-07T12:51:39;9.90;99.90
42615;DHT22;28754;47.700;7.924;2024-03-07T12:54:28;10.10;99.90
42615;DHT22;28754;47.700;7.924;2024-03-07T12:57:15;10.50;99.90
42615;DHT22;28754;47.700;7.924;2024-03-07T13:00:02;10.80;99.90
42615;DHT22;28754;47.700;7.924;2024-03-07T13:02:58;10.70;99.90
42615;DHT22;28754;47.700;7.924;2024-03-07T13:05:46;10.30;99.90
42615;DHT22;28754;47.700;7.924;2024-03-07T13:08:33;11.10;99.90
42615;DHT22;28754;47.700;7.924;2024-03-07T13:11:20;11.70;99.90
42615;DHT22;28754;47.700;7.924;2024-03-07T13:14:07;12.20;99.90
42615;DHT22;28754;47.700;7.924;2024-03-07T13:16:54;11.50;99.90
42615;DHT22;28754;47.700;7.924;2024-03-07T13:19:41;10.80;99.90
42615;DHT22;28754;47.700;7.924;2024-03-07T13:22:34;10.30;99.90
42615;DHT22;28754;47.700;7.924;2024-03-07T13:25:25;10.10;99.90
42615;DHT22;28754;47.700;7.924;2024-03-07T13:28:13;10.00;99.90
42615;DHT22;28754;47.700;7.924;2024-03-07T13:31:03;9.00;99.90
42615;DHT22;28754;47.700;7.924;2024-03-07T13:33:50;8.40;99.90
42615;DHT22;28754;47.700;7.924;2024-03-07T13:36:37;8.10;99.90
42615;DHT22;28754;47.700;7.924;2024-03-07T13:39:24;7.90;99.90
42615;DHT22;28754;47.700;7.924;2024-03-07T13:42:11;8.00;99.90
42615;DHT22;28754;47.700;7.924;2024-03-07T13:44:57;8.00;99.90
42615;DHT22;28754;47.700;7.924;2024-03-07T13:47:44;8.10;99.90
42615;DHT22;28754;47.700;7.924;2024-03-07T13:50:33;8.50;99.90
42615;DHT22;28754;47.700;7.924;2024-03-07T13:53:21;9.30;99.90
42615;DHT22;28754;47.700;7.924;2024-03-07T13:59:31;9.90;99.90
42615;DHT22;28754;47.700;7.924;2024-03-07T14:08:55;9.00;99.90
42615;DHT22;28754;47.700;7.924;2024-03-07T14:22:23;8.40;99.90
42615;DHT22;28754;47.700;7.924;2024-03-07T14:26:14;8.00;99.90
42615;DHT22;28754;47.700;7.924;2024-03-07T14:32:29;8.60;99.90
42615;DHT22;28754;47.700;7.924;2024-03-07T14:38:52;8.10;99.90
42615;DHT22;28754;47.700;7.924;2024-03-07T14:42:01;7.90;99.90
42615;DHT22;28754;47.700;7.924;2024-03-07T14:44:55;7.70;99.90
42615;DHT22;28754;47.700;7.924;2024-03-07T14:47:43;7.60;99.90
42615;DHT22;28754;47.700;7.924;2024-03-07T14:50:32;7.50;99.90
42615;DHT22;28754;47.700;7.924;2024-03-07T14:53:19;7.50;99.90
42615;DHT22;28754;47.700;7.924;2024-03-07T14:56:07;7.40;99.90
42615;DHT22;28754;47.700;7.924;2024-03-07T14:58:55;7.30;99.90
42615;DHT22;28754;47.700;7.924;2024-03-07T15:01:42;7.10;99.90
42615;DHT22;28754;47.700;7.924;2024-03-07T15:04:31;6.80;99.90
42615;DHT22;28754;47.700;7.924;2024-03-07T15:07:19;6.80;99.90
42615;DHT22;28754;47.700;7.924;2024-03-07T15:10:27;6.70;99.90
42615;DHT22;28754;47.700;7.924;2024-03-07T15:13:16;6.60;99.90
42615;DHT22;28754;47.700;7.924;2024-03-07T15:16:03;7.10;99.90
42615;DHT22;28754;47.700;7.924;2024-03-07T15:18:52;7.00;99.90
42615;DHT22;28754;47.700;7.924;2024-03-07T15:21:39;6.70;99.90
42615;DHT22;28754;47.700;7.924;2024-03-07T15:24:25;6.50;99.90
42615;DHT22;28754;47.700;7.924;2024-03-07T15:27:12;6.20;99.90
42615;DHT22;28754;47.700;7.924;2024-03-07T15:29:59;6.00;99.90
42615;DHT22;28754;47.700;7.924;2024-03-07T15:32:46;5.90;99.90
42615;DHT22;28754;47.700;7.924;2024-03-07T15:35:33;5.80;99.90
42615;DHT22;28754;47.700;7.924;2024-03-07T15:38:21;5.90;99.90
42615;DHT22;28754;47.700;7.924;2024-03-07T15:41:08;5.70;99.90
42615;DHT22;28754;47.700;7.924;2024-03-07T15:43:56;5.60;99.90
42615;DHT22;28754;47.700;7.924;2024-03-07T15:46:43;5.50;99.90
42615;DHT22;28754;47.700;7.924;2024-03-07T15:49:31;5.50;99.90
42615;DHT22;28754;47.700;7.924;2024-03-07T15:52:17;5.40;99.90
42615;DHT22;28754;47.700;7.924;2024-03-07T15:55:07;5.50;99.90
42615;DHT22;28754;47.700;7.924;2024-03-07T15:58:00;5.30;99.90
42615;DHT22;28754;47.700;7.924;2024-03-07T16:00:53;5.20;99.90
42615;DHT22;28754;47.700;7.924;2024-03-07T16:03:42;5.10;99.90
42615;DHT22;28754;47.700;7.924;2024-03-07T16:06:28;5.00;99.90
42615;DHT22;28754;47.700;7.924;2024-03-07T16:09:15;4.90;99.90
42615;DHT22;28754;47.700;7.924;2024-03-07T16:12:08;4.90;99.90
42615;DHT22;28754;47.700;7.924;2024-03-07T16:14:56;4.90;99.90
42615;DHT22;28754;47.700;7.924;2024-03-07T16:17:42;4.70;99.90
42615;DHT22;28754;47.700;7.924;2024-03-07T16:20:31;4.60;99.90
42615;DHT22;28754;47.700;7.924;2024-03-07T16:23:21;4.60;99.90
42615;DHT22;28754;47.700;7.924;2024-03-07T16:26:08;4.50;99.90
42615;DHT22;28754;47.700;7.924;2024-03-07T16:28:55;4.40;99.90
42615;DHT22;28754;47.700;7.924;2024-03-07T16:31:42;4.50;99.90
42615;DHT22;28754;47.700;7.924;2024-03-07T16:34:29;4.60;99.90
42615;DHT22;28754;47.700;7.924;2024-03-07T16:37:17;4.70;99.90
42615;DHT22;28754;47.700;7.924;2024-03-07T16:40:18;4.70;99.90
42615;DHT22;28754;47.700;7.924;2024-03-07T16:43:06;4.70;99.90
42615;DHT22;28754;47.700;7.924;2024-03-07T16:45:57;4.90;99.90
42615;DHT22;28754;47.700;7.924;2024-03-07T16:48:44;4.70;99.90
42615;DHT22;28754;47.700;7.924;2024-03-07T16:51:31;4.90;99.90
42615;DHT22;28754;47.700;7.924;2024-03-07T16:54:18;4.60;99.90
42615;DHT22;28754;47.700;7.924;2024-03-07T16:57:04;4.60;99.90
42615;DHT22;28754;47.700;7.924;2024-03-07T16:59:53;4.70;99.90
42615;DHT22;28754;47.700;7.924;2024-03-07T17:02:40;4.60;99.90
42615;DHT22;28754;47.700;7.924;2024-03-07T17:05:31;4.60;99.90
42615;DHT22;28754;47.700;7.924;2024-03-07T17:08:22;4.60;99.90
42615;DHT22;28754;47.700;7.924;2024-03-07T17:11:10;4.50;99.90
42615;DHT22;28754;47.700;7.924;2024-03-07T17:13:59;4.40;99.90
42615;DHT22;28754;47.700;7.924;2024-03-07T17:16:46;4.40;99.90
42615;DHT22;28754;47.700;7.924;2024-03-07T17:19:35;4.40;99.90
42615;DHT22;28754;47.700;7.924;2024-03-07T17:22:22;4.30;99.90
42615;DHT22;28754;47.700;7.924;2024-03-07T17:25:09;4.20;99.90
42615;DHT22;28754;47.700;7.924;2024-03-07T17:27:58;4.20;99.90
42615;DHT22;28754;47.700;7.924;2024-03-07T17:30:46;4.20;99.90
42615;DHT22;28754;47.700;7.924;2024-03-07T17:33:32;4.20;99.90
42615;DHT22;28754;47.700;7.924;2024-03-07T17:36:19;4.10;99.90
42615;DHT22;28754;47.700;7.924;2024-03-07T17:39:06;4.10;99.90
42615;DHT22;28754;47.700;7.924;2024-03-07T17:41:59;4.00;99.90
42615;DHT22;28754;47.700;7.924;2024-03-07T17:44:50;4.00;99.90
42615;DHT22;28754;47.700;7.924;2024-03-07T17:47:39;4.00;99.90
42615;DHT22;28754;47.700;7.924;2024-03-07T17:50:31;4.00;99.90
42615;DHT22;28754;47.700;7.924;2024-03-07T17:53:19;4.00;99.90
42615;DHT22;28754;47.700;7.924;2024-03-07T17:56:06;3.90;99.90
42615;DHT22;28754;47.700;7.924;2024-03-07T17:58:54;3.80;99.90
42615;DHT22;28754;47.700;7.924;2024-03-07T18:01:42;3.70;99.90
42615;DHT22;28754;47.700;7.924;2024-03-07T18:04:31;3.70;99.90
42615;DHT22;28754;47.700;7.924;2024-03-07T18:07:18;3.70;99.90
42615;DHT22;28754;47.700;7.924;2024-03-07T18:10:08;3.70;99.90
42615;DHT22;28754;47.700;7.924;2024-03-07T18:13:05;3.70;99.90
42615;DHT22;28754;47.700;7.924;2024-03-07T18:15:54;3.70;99.90
42615;DHT22;28754;47.700;7.924;2024-03-07T18:18:43;3.80;99.90
42615;DHT22;28754;47.700;7.924;2024-03-07T18:21:32;3.70;99.90
42615;DHT22;28754;47.700;7.924;2024-03-07T18:24:20;3.70;99.90
42615;DHT22;28754;47.700;7.924;2024-03-07T18:27:07;3.70;99.90
42615;DHT22;28754;47.700;7.924;2024-03-07T18:29:57;3.70;99.90
42615;DHT22;28754;47.700;7.924;2024-03-07T18:32:56;3.70;99.90
42615;DHT22;28754;47.700;7.924;2024-03-07T18:35:43;3.70;99.90
42615;DHT22;28754;47.700;7.924;2024-03-07T18:38:32;3.60;99.90